sensor_id;sensor_type;location;lat;lon;timestamp;P1;durP1;ratioP1;P2;durP2;ratioP2
35745;SDS011;21870;42.812;74.628;2023-07-31T00:00:34;6.25;;;2.13;;
35745;SDS011;21870;42.812;74.628;2023-07-31T00:03:00;3.25;;;1.98;;
35745;SDS011;21870;42.812;74.628;2023-07-31T00:05:26;5.72;;;2.05;;
35745;SDS011;21870;42.812;74.628;2023-07-31T00:07:52;5.93;;;1.80;;
35745;SDS011;21870;42.812;74.628;2023-07-31T00:10:19;3.90;;;2.22;;
35745;SDS011;21870;42.812;74.628;2023-07-31T00:12:46;6.70;;;2.33;;
35745;SDS011;21870;42.812;74.628;2023-07-31T00:15:13;3.95;;;1.90;;
35745;SDS011;21870;42.812;74.628;2023-07-31T00:17:39;5.10;;;1.92;;
35745;SDS011;21870;42.812;74.628;2023-07-31T00:20:06;5.22;;;2.05;;
35745;SDS011;21870;42.812;74.628;2023-07-31T00:22:32;2.65;;;2.20;;
35745;SDS011;21870;42.812;74.628;2023-07-31T00:24:58;2.90;;;2.20;;
35745;SDS011;21870;42.812;74.628;2023-07-31T00:27:25;5.13;;;1.85;;
35745;SDS011;21870;42.812;74.628;2023-07-31T00:29:51;2.95;;;2.03;;
35745;SDS011;21870;42.812;74.628;2023-07-31T00:32:17;2.25;;;1.60;;
35745;SDS011;21870;42.812;74.628;2023-07-31T00:34:43;4.90;;;2.08;;
35745;SDS011;21870;42.812;74.628;2023-07-31T00:37:09;1.92;;;1.77;;
35745;SDS011;21870;42.812;74.628;2023-07-31T00:39:35;5.10;;;2.00;;
35745;SDS011;21870;42.812;74.628;2023-07-31T00:42:01;2.83;;;1.73;;
35745;SDS011;21870;42.812;74.628;2023-07-31T00:44:27;5.20;;;2.00;;
35745;SDS011;21870;42.812;74.628;2023-07-31T00:46:53;7.35;;;2.05;;
35745;SDS011;21870;42.812;74.628;2023-07-31T00:49:21;4.95;;;2.17;;
35745;SDS011;21870;42.812;74.628;2023-07-31T00:51:48;7.43;;;2.22;;
35745;SDS011;21870;42.812;74.628;2023-07-31T00:54:14;2.65;;;1.83;;
35745;SDS011;21870;42.812;74.628;2023-07-31T00:56:40;2.55;;;2.33;;
35745;SDS011;21870;42.812;74.628;2023-07-31T00:59:08;6.32;;;2.13;;
35745;SDS011;21870;42.812;74.628;2023-07-31T01:01:35;3.47;;;2.08;;
35745;SDS011;21870;42.812;74.628;2023-07-31T01:04:01;4.28;;;2.00;;
35745;SDS011;21870;42.812;74.628;2023-07-31T01:06:37;5.75;;;1.88;;
35745;SDS011;21870;42.812;74.628;2023-07-31T01:09:16;3.25;;;1.95;;
35745;SDS011;21870;42.812;74.628;2023-07-31T01:11:53;6.18;;;1.80;;
35745;SDS011;21870;42.812;74.628;2023-07-31T01:14:24;6.07;;;2.03;;
35745;SDS011;21870;42.812;74.628;2023-07-31T01:16:50;4.32;;;2.10;;
35745;SDS011;21870;42.812;74.628;2023-07-31T01:19:24;5.03;;;2.30;;
35745;SDS011;21870;42.812;74.628;2023-07-31T01:27:24;4.25;;;1.98;;
35745;SDS011;21870;42.812;74.628;2023-07-31T01:29:57;6.80;;;2.03;;
35745;SDS011;21870;42.812;74.628;2023-07-31T01:32:39;4.10;;;2.10;;
35745;SDS011;21870;42.812;74.628;2023-07-31T01:35:07;8.18;;;2.13;;
35745;SDS011;21870;42.812;74.628;2023-07-31T01:37:34;6.35;;;2.13;;
35745;SDS011;21870;42.812;74.628;2023-07-31T01:40:00;3.33;;;1.70;;
35745;SDS011;21870;42.812;74.628;2023-07-31T01:42:26;3.92;;;1.77;;
35745;SDS011;21870;42.812;74.628;2023-07-31T01:44:52;3.97;;;1.88;;
35745;SDS011;21870;42.812;74.628;2023-07-31T01:47:18;3.40;;;2.10;;
35745;SDS011;21870;42.812;74.628;2023-07-31T01:49:44;2.95;;;1.80;;
35745;SDS011;21870;42.812;74.628;2023-07-31T01:52:10;2.83;;;1.80;;
35745;SDS011;21870;42.812;74.628;2023-07-31T01:54:36;5.00;;;2.28;;
35745;SDS011;21870;42.812;74.628;2023-07-31T01:57:02;5.10;;;1.90;;
35745;SDS011;21870;42.812;74.628;2023-07-31T01:59:28;6.93;;;2.15;;
35745;SDS011;21870;42.812;74.628;2023-07-31T02:01:54;19.65;;;3.10;;
35745;SDS011;21870;42.812;74.628;2023-07-31T02:04:20;6.82;;;2.30;;
35745;SDS011;21870;42.812;74.628;2023-07-31T02:06:49;5.68;;;2.08;;
35745;SDS011;21870;42.812;74.628;2023-07-31T02:09:15;7.75;;;2.20;;
35745;SDS011;21870;42.812;74.628;2023-07-31T02:11:41;8.10;;;2.50;;
35745;SDS011;21870;42.812;74.628;2023-07-31T02:14:07;8.68;;;2.70;;
35745;SDS011;21870;42.812;74.628;2023-07-31T02:16:33;8.63;;;2.25;;
35745;SDS011;21870;42.812;74.628;2023-07-31T02:18:59;8.13;;;2.58;;
35745;SDS011;21870;42.812;74.628;2023-07-31T02:21:25;7.20;;;2.17;;
35745;SDS011;21870;42.812;74.628;2023-07-31T02:23:51;3.83;;;1.98;;
35745;SDS011;21870;42.812;74.628;2023-07-31T02:26:17;3.50;;;1.73;;
35745;SDS011;21870;42.812;74.628;2023-07-31T02:28:43;10.30;;;3.00;;
35745;SDS011;21870;42.812;74.628;2023-07-31T02:31:09;12.32;;;3.25;;
35745;SDS011;21870;42.812;74.628;2023-07-31T02:33:35;11.77;;;3.40;;
35745;SDS011;21870;42.812;74.628;2023-07-31T02:36:01;10.85;;;5.38;;
35745;SDS011;21870;42.812;74.628;2023-07-31T02:38:27;8.05;;;4.68;;
35745;SDS011;21870;42.812;74.628;2023-07-31T02:40:53;20.67;;;4.85;;
35745;SDS011;21870;42.812;74.628;2023-07-31T02:43:19;11.05;;;4.05;;
35745;SDS011;21870;42.812;74.628;2023-07-31T02:45:45;9.10;;;3.50;;
35745;SDS011;21870;42.812;74.628;2023-07-31T02:48:11;7.72;;;4.32;;
35745;SDS011;21870;42.812;74.628;2023-07-31T02:50:37;11.40;;;4.40;;
35745;SDS011;21870;42.812;74.628;2023-07-31T02:53:03;10.10;;;4.30;;
35745;SDS011;21870;42.812;74.628;2023-07-31T02:55:29;11.80;;;5.43;;
35745;SDS011;21870;42.812;74.628;2023-07-31T02:57:55;13.68;;;4.35;;
35745;SDS011;21870;42.812;74.628;2023-07-31T03:00:21;14.32;;;3.78;;
35745;SDS011;21870;42.812;74.628;2023-07-31T03:02:47;6.82;;;3.88;;
35745;SDS011;21870;42.812;74.628;2023-07-31T03:05:13;10.75;;;4.00;;
35745;SDS011;21870;42.812;74.628;2023-07-31T03:07:39;12.45;;;4.05;;
35745;SDS011;21870;42.812;74.628;2023-07-31T03:10:05;7.57;;;3.30;;
35745;SDS011;21870;42.812;74.628;2023-07-31T03:12:31;12.95;;;3.55;;
35745;SDS011;21870;42.812;74.628;2023-07-31T03:14:57;13.02;;;3.40;;
35745;SDS011;21870;42.812;74.628;2023-07-31T03:17:23;14.70;;;3.38;;
35745;SDS011;21870;42.812;74.628;2023-07-31T03:19:49;16.08;;;2.72;;
35745;SDS011;21870;42.812;74.628;2023-07-31T03:22:15;11.25;;;2.75;;
35745;SDS011;21870;42.812;74.628;2023-07-31T03:24:41;9.70;;;3.05;;
35745;SDS011;21870;42.812;74.628;2023-07-31T03:27:07;20.05;;;4.30;;
35745;SDS011;21870;42.812;74.628;2023-07-31T03:29:33;10.63;;;3.22;;
35745;SDS011;21870;42.812;74.628;2023-07-31T03:31:59;8.57;;;2.75;;
35745;SDS011;21870;42.812;74.628;2023-07-31T03:34:26;10.43;;;4.03;;
35745;SDS011;21870;42.812;74.628;2023-07-31T03:36:52;5.55;;;2.65;;
35745;SDS011;21870;42.812;74.628;2023-07-31T03:39:18;5.90;;;2.72;;
35745;SDS011;21870;42.812;74.628;2023-07-31T03:41:44;11.32;;;3.25;;
35745;SDS011;21870;42.812;74.628;2023-07-31T03:44:10;4.63;;;2.30;;
35745;SDS011;21870;42.812;74.628;2023-07-31T03:46:36;9.65;;;2.75;;
35745;SDS011;21870;42.812;74.628;2023-07-31T03:49:02;6.00;;;2.70;;
35745;SDS011;21870;42.812;74.628;2023-07-31T03:51:28;9.13;;;2.78;;
35745;SDS011;21870;42.812;74.628;2023-07-31T03:53:54;10.70;;;3.00;;
35745;SDS011;21870;42.812;74.628;2023-07-31T03:56:20;8.57;;;2.83;;
35745;SDS011;21870;42.812;74.628;2023-07-31T03:58:46;9.75;;;2.88;;
35745;SDS011;21870;42.812;74.628;2023-07-31T04:01:12;6.90;;;2.97;;
35745;SDS011;21870;42.812;74.628;2023-07-31T04:03:38;6.60;;;2.33;;
35745;SDS011;21870;42.812;74.628;2023-07-31T04:06:04;13.35;;;3.58;;
35745;SDS011;21870;42.812;74.628;2023-07-31T04:08:32;14.07;;;3.28;;
35745;SDS011;21870;42.812;74.628;2023-07-31T04:10:58;6.60;;;3.20;;
35745;SDS011;21870;42.812;74.628;2023-07-31T04:13:24;13.07;;;3.10;;
35745;SDS011;21870;42.812;74.628;2023-07-31T04:15:52;8.07;;;2.97;;
35745;SDS011;21870;42.812;74.628;2023-07-31T04:18:19;8.10;;;2.45;;
35745;SDS011;21870;42.812;74.628;2023-07-31T04:20:45;12.30;;;2.70;;
35745;SDS011;21870;42.812;74.628;2023-07-31T04:23:11;2.97;;;2.22;;
35745;SDS011;21870;42.812;74.628;2023-07-31T04:25:37;3.53;;;2.13;;
35745;SDS011;21870;42.812;74.628;2023-07-31T04:28:03;5.05;;;2.10;;
35745;SDS011;21870;42.812;74.628;2023-07-31T04:30:29;7.28;;;2.67;;
35745;SDS011;21870;42.812;74.628;2023-07-31T04:32:55;7.60;;;2.47;;
35745;SDS011;21870;42.812;74.628;2023-07-31T04:35:21;6.70;;;2.38;;
35745;SDS011;21870;42.812;74.628;2023-07-31T04:37:47;3.33;;;2.55;;
35745;SDS011;21870;42.812;74.628;2023-07-31T04:40:14;7.40;;;2.65;;
35745;SDS011;21870;42.812;74.628;2023-07-31T04:42:41;10.98;;;2.95;;
35745;SDS011;21870;42.812;74.628;2023-07-31T04:45:08;9.02;;;2.13;;
35745;SDS011;21870;42.812;74.628;2023-07-31T04:47:34;12.25;;;3.10;;
35745;SDS011;21870;42.812;74.628;2023-07-31T04:50:00;11.43;;;3.10;;
35745;SDS011;21870;42.812;74.628;2023-07-31T04:52:26;10.30;;;3.30;;
35745;SDS011;21870;42.812;74.628;2023-07-31T04:54:52;4.63;;;2.45;;
35745;SDS011;21870;42.812;74.628;2023-07-31T04:57:18;4.47;;;2.85;;
35745;SDS011;21870;42.812;74.628;2023-07-31T04:59:44;9.23;;;2.55;;
35745;SDS011;21870;42.812;74.628;2023-07-31T05:02:11;6.43;;;2.42;;
35745;SDS011;21870;42.812;74.628;2023-07-31T05:04:38;5.82;;;2.60;;
35745;SDS011;21870;42.812;74.628;2023-07-31T05:07:04;3.17;;;2.30;;
35745;SDS011;21870;42.812;74.628;2023-07-31T05:09:30;3.35;;;2.38;;
35745;SDS011;21870;42.812;74.628;2023-07-31T05:11:56;4.93;;;2.50;;
35745;SDS011;21870;42.812;74.628;2023-07-31T05:14:22;6.55;;;2.70;;
35745;SDS011;21870;42.812;74.628;2023-07-31T05:16:48;8.65;;;2.63;;
35745;SDS011;21870;42.812;74.628;2023-07-31T05:19:14;7.63;;;2.10;;
35745;SDS011;21870;42.812;74.628;2023-07-31T05:21:40;4.80;;;2.20;;
35745;SDS011;21870;42.812;74.628;2023-07-31T05:24:06;6.82;;;2.33;;
35745;SDS011;21870;42.812;74.628;2023-07-31T05:26:32;4.43;;;2.55;;
35745;SDS011;21870;42.812;74.628;2023-07-31T05:29:01;3.78;;;2.08;;
35745;SDS011;21870;42.812;74.628;2023-07-31T05:31:27;4.95;;;1.98;;
35745;SDS011;21870;42.812;74.628;2023-07-31T05:33:53;6.25;;;2.35;;
35745;SDS011;21870;42.812;74.628;2023-07-31T05:36:19;9.38;;;2.60;;
35745;SDS011;21870;42.812;74.628;2023-07-31T05:38:45;4.70;;;2.55;;
35745;SDS011;21870;42.812;74.628;2023-07-31T05:41:14;8.95;;;2.80;;
35745;SDS011;21870;42.812;74.628;2023-07-31T05:43:41;5.85;;;3.22;;
35745;SDS011;21870;42.812;74.628;2023-07-31T05:46:08;6.20;;;2.97;;
35745;SDS011;21870;42.812;74.628;2023-07-31T05:48:34;11.68;;;3.13;;
35745;SDS011;21870;42.812;74.628;2023-07-31T05:51:00;7.57;;;2.95;;
35745;SDS011;21870;42.812;74.628;2023-07-31T05:53:26;8.50;;;2.30;;
35745;SDS011;21870;42.812;74.628;2023-07-31T05:55:52;4.43;;;2.85;;
35745;SDS011;21870;42.812;74.628;2023-07-31T05:58:18;8.90;;;2.97;;
35745;SDS011;21870;42.812;74.628;2023-07-31T06:00:44;7.07;;;2.47;;
35745;SDS011;21870;42.812;74.628;2023-07-31T06:03:10;5.60;;;2.85;;
35745;SDS011;21870;42.812;74.628;2023-07-31T06:05:37;6.75;;;2.70;;
35745;SDS011;21870;42.812;74.628;2023-07-31T06:08:03;8.55;;;5.10;;
35745;SDS011;21870;42.812;74.628;2023-07-31T06:10:29;5.80;;;2.20;;
35745;SDS011;21870;42.812;74.628;2023-07-31T06:12:55;5.97;;;2.25;;
35745;SDS011;21870;42.812;74.628;2023-07-31T06:15:22;6.95;;;2.22;;
35745;SDS011;21870;42.812;74.628;2023-07-31T06:17:48;6.35;;;2.70;;
35745;SDS011;21870;42.812;74.628;2023-07-31T06:20:14;9.63;;;2.63;;
35745;SDS011;21870;42.812;74.628;2023-07-31T06:22:40;4.00;;;2.28;;
35745;SDS011;21870;42.812;74.628;2023-07-31T06:25:06;5.53;;;2.58;;
35745;SDS011;21870;42.812;74.628;2023-07-31T06:27:33;9.45;;;2.70;;
35745;SDS011;21870;42.812;74.628;2023-07-31T06:29:59;10.80;;;2.63;;
35745;SDS011;21870;42.812;74.628;2023-07-31T06:32:25;10.07;;;2.90;;
35745;SDS011;21870;42.812;74.628;2023-07-31T06:34:51;8.75;;;2.40;;
35745;SDS011;21870;42.812;74.628;2023-07-31T06:37:17;14.43;;;4.05;;
35745;SDS011;21870;42.812;74.628;2023-07-31T06:39:43;10.85;;;3.28;;
35745;SDS011;21870;42.812;74.628;2023-07-31T06:42:09;6.65;;;2.88;;
35745;SDS011;21870;42.812;74.628;2023-07-31T06:44:35;10.68;;;3.00;;
35745;SDS011;21870;42.812;74.628;2023-07-31T06:47:01;7.13;;;2.72;;
35745;SDS011;21870;42.812;74.628;2023-07-31T06:49:27;19.17;;;3.17;;
35745;SDS011;21870;42.812;74.628;2023-07-31T06:51:53;10.85;;;3.00;;
35745;SDS011;21870;42.812;74.628;2023-07-31T06:54:19;8.13;;;2.65;;
35745;SDS011;21870;42.812;74.628;2023-07-31T06:56:45;7.80;;;2.78;;
35745;SDS011;21870;42.812;74.628;2023-07-31T06:59:11;23.15;;;3.75;;
35745;SDS011;21870;42.812;74.628;2023-07-31T07:01:37;9.88;;;3.22;;
35745;SDS011;21870;42.812;74.628;2023-07-31T07:04:03;5.25;;;1.95;;
35745;SDS011;21870;42.812;74.628;2023-07-31T07:06:29;9.70;;;2.35;;
35745;SDS011;21870;42.812;74.628;2023-07-31T07:08:55;3.67;;;2.30;;
35745;SDS011;21870;42.812;74.628;2023-07-31T07:11:21;12.68;;;2.50;;
35745;SDS011;21870;42.812;74.628;2023-07-31T07:13:47;4.43;;;2.40;;
35745;SDS011;21870;42.812;74.628;2023-07-31T07:16:13;4.75;;;2.20;;
35745;SDS011;21870;42.812;74.628;2023-07-31T07:18:39;7.32;;;2.13;;
35745;SDS011;21870;42.812;74.628;2023-07-31T07:21:05;7.90;;;2.13;;
35745;SDS011;21870;42.812;74.628;2023-07-31T07:23:31;6.88;;;2.40;;
35745;SDS011;21870;42.812;74.628;2023-07-31T07:25:57;9.73;;;2.10;;
35745;SDS011;21870;42.812;74.628;2023-07-31T07:28:23;6.50;;;2.65;;
35745;SDS011;21870;42.812;74.628;2023-07-31T07:30:52;13.05;;;3.13;;
35745;SDS011;21870;42.812;74.628;2023-07-31T07:33:19;10.05;;;2.72;;
35745;SDS011;21870;42.812;74.628;2023-07-31T07:35:45;9.52;;;2.53;;
35745;SDS011;21870;42.812;74.628;2023-07-31T07:38:11;8.75;;;2.55;;
35745;SDS011;21870;42.812;74.628;2023-07-31T07:40:39;13.10;;;2.83;;
35745;SDS011;21870;42.812;74.628;2023-07-31T07:43:05;4.75;;;2.40;;
35745;SDS011;21870;42.812;74.628;2023-07-31T07:45:32;5.88;;;2.70;;
35745;SDS011;21870;42.812;74.628;2023-07-31T07:47:58;16.67;;;3.28;;
35745;SDS011;21870;42.812;74.628;2023-07-31T07:50:24;9.40;;;2.65;;
35745;SDS011;21870;42.812;74.628;2023-07-31T07:52:50;10.85;;;2.92;;
35745;SDS011;21870;42.812;74.628;2023-07-31T07:55:16;6.20;;;2.10;;
35745;SDS011;21870;42.812;74.628;2023-07-31T07:57:42;5.57;;;2.10;;
35745;SDS011;21870;42.812;74.628;2023-07-31T08:00:10;16.25;;;2.53;;
35745;SDS011;21870;42.812;74.628;2023-07-31T08:02:37;7.78;;;2.25;;
35745;SDS011;21870;42.812;74.628;2023-07-31T08:05:03;24.55;;;4.80;;
35745;SDS011;21870;42.812;74.628;2023-07-31T08:07:29;13.40;;;3.70;;
35745;SDS011;21870;42.812;74.628;2023-07-31T08:09:55;10.85;;;2.72;;
35745;SDS011;21870;42.812;74.628;2023-07-31T08:12:21;7.07;;;2.30;;
35745;SDS011;21870;42.812;74.628;2023-07-31T08:14:47;8.45;;;2.20;;
35745;SDS011;21870;42.812;74.628;2023-07-31T08:17:13;11.98;;;2.58;;
35745;SDS011;21870;42.812;74.628;2023-07-31T08:19:39;8.27;;;2.42;;
35745;SDS011;21870;42.812;74.628;2023-07-31T08:22:05;8.02;;;2.25;;
35745;SDS011;21870;42.812;74.628;2023-07-31T08:24:31;10.40;;;2.38;;
35745;SDS011;21870;42.812;74.628;2023-07-31T08:26:57;3.50;;;2.25;;
35745;SDS011;21870;42.812;74.628;2023-07-31T08:29:24;7.13;;;2.33;;
35745;SDS011;21870;42.812;74.628;2023-07-31T08:31:50;8.88;;;2.92;;
35745;SDS011;21870;42.812;74.628;2023-07-31T08:34:16;6.28;;;3.35;;
35745;SDS011;21870;42.812;74.628;2023-07-31T08:36:42;11.70;;;3.60;;
35745;SDS011;21870;42.812;74.628;2023-07-31T08:39:08;17.17;;;3.65;;
35745;SDS011;21870;42.812;74.628;2023-07-31T08:41:38;15.00;;;3.53;;
35745;SDS011;21870;42.812;74.628;2023-07-31T08:44:04;21.15;;;3.67;;
35745;SDS011;21870;42.812;74.628;2023-07-31T08:46:32;13.90;;;3.45;;
35745;SDS011;21870;42.812;74.628;2023-07-31T08:48:59;8.15;;;2.28;;
35745;SDS011;21870;42.812;74.628;2023-07-31T08:51:29;6.72;;;2.15;;
35745;SDS011;21870;42.812;74.628;2023-07-31T08:53:55;3.20;;;1.40;;
35745;SDS011;21870;42.812;74.628;2023-07-31T08:56:22;7.80;;;1.75;;
35745;SDS011;21870;42.812;74.628;2023-07-31T08:58:50;10.50;;;1.83;;
35745;SDS011;21870;42.812;74.628;2023-07-31T09:01:17;31.45;;;3.75;;
35745;SDS011;21870;42.812;74.628;2023-07-31T09:03:43;94.00;;;9.35;;
35745;SDS011;21870;42.812;74.628;2023-07-31T09:06:10;140.15;;;12.80;;
35745;SDS011;21870;42.812;74.628;2023-07-31T09:08:37;65.63;;;7.38;;
35745;SDS011;21870;42.812;74.628;2023-07-31T09:11:07;68.70;;;7.70;;
35745;SDS011;21870;42.812;74.628;2023-07-31T09:13:36;51.30;;;5.68;;
35745;SDS011;21870;42.812;74.628;2023-07-31T09:16:05;114.80;;;11.27;;
35745;SDS011;21870;42.812;74.628;2023-07-31T09:18:31;123.97;;;11.52;;
35745;SDS011;21870;42.812;74.628;2023-07-31T09:21:00;118.03;;;10.98;;
35745;SDS011;21870;42.812;74.628;2023-07-31T09:23:40;114.10;;;12.60;;
35745;SDS011;21870;42.812;74.628;2023-07-31T09:26:07;46.60;;;5.45;;
35745;SDS011;21870;42.812;74.628;2023-07-31T09:28:33;14.32;;;2.65;;
35745;SDS011;21870;42.812;74.628;2023-07-31T09:30:59;9.73;;;1.23;;
35745;SDS011;21870;42.812;74.628;2023-07-31T09:33:25;5.55;;;1.20;;
35745;SDS011;21870;42.812;74.628;2023-07-31T09:35:51;2.95;;;1.20;;
35745;SDS011;21870;42.812;74.628;2023-07-31T09:38:17;5.00;;;1.80;;
35745;SDS011;21870;42.812;74.628;2023-07-31T09:40:44;14.40;;;2.10;;
35745;SDS011;21870;42.812;74.628;2023-07-31T09:43:12;9.27;;;2.00;;
35745;SDS011;21870;42.812;74.628;2023-07-31T09:45:42;41.40;;;4.40;;
35745;SDS011;21870;42.812;74.628;2023-07-31T09:48:10;17.45;;;2.15;;
35745;SDS011;21870;42.812;74.628;2023-07-31T09:50:44;9.30;;;1.50;;
35745;SDS011;21870;42.812;74.628;2023-07-31T09:53:11;14.65;;;2.60;;
35745;SDS011;21870;42.812;74.628;2023-07-31T09:55:38;10.75;;;2.28;;
35745;SDS011;21870;42.812;74.628;2023-07-31T09:58:06;11.90;;;1.58;;
35745;SDS011;21870;42.812;74.628;2023-07-31T10:00:33;16.10;;;1.67;;
35745;SDS011;21870;42.812;74.628;2023-07-31T10:03:00;9.77;;;1.85;;
35745;SDS011;21870;42.812;74.628;2023-07-31T10:05:30;6.65;;;1.40;;
35745;SDS011;21870;42.812;74.628;2023-07-31T10:08:00;11.18;;;1.65;;
35745;SDS011;21870;42.812;74.628;2023-07-31T10:10:26;8.95;;;1.35;;
35745;SDS011;21870;42.812;74.628;2023-07-31T10:12:53;4.63;;;1.05;;
35745;SDS011;21870;42.812;74.628;2023-07-31T10:15:21;1.52;;;1.13;;
35745;SDS011;21870;42.812;74.628;2023-07-31T10:17:48;4.18;;;0.82;;
35745;SDS011;21870;42.812;74.628;2023-07-31T10:20:15;4.95;;;1.13;;
35745;SDS011;21870;42.812;74.628;2023-07-31T10:22:45;2.45;;;1.00;;
35745;SDS011;21870;42.812;74.628;2023-07-31T10:25:13;1.80;;;1.10;;
35745;SDS011;21870;42.812;74.628;2023-07-31T10:27:40;1.15;;;1.00;;
35745;SDS011;21870;42.812;74.628;2023-07-31T10:30:11;3.30;;;1.27;;
35745;SDS011;21870;42.812;74.628;2023-07-31T10:32:41;2.97;;;1.00;;
35745;SDS011;21870;42.812;74.628;2023-07-31T10:35:08;5.47;;;1.00;;
35745;SDS011;21870;42.812;74.628;2023-07-31T10:37:39;2.72;;;1.33;;
35745;SDS011;21870;42.812;74.628;2023-07-31T10:40:17;1.52;;;1.20;;
35745;SDS011;21870;42.812;74.628;2023-07-31T10:42:47;7.95;;;1.33;;
35745;SDS011;21870;42.812;74.628;2023-07-31T10:45:34;1.92;;;1.48;;
35745;SDS011;21870;42.812;74.628;2023-07-31T10:48:05;2.75;;;1.10;;
35745;SDS011;21870;42.812;74.628;2023-07-31T10:50:36;4.10;;;1.17;;
35745;SDS011;21870;42.812;74.628;2023-07-31T10:53:03;2.20;;;1.02;;
35745;SDS011;21870;42.812;74.628;2023-07-31T10:55:41;3.47;;;0.93;;
35745;SDS011;21870;42.812;74.628;2023-07-31T10:58:11;2.63;;;1.48;;
35745;SDS011;21870;42.812;74.628;2023-07-31T11:00:42;2.60;;;0.82;;
35745;SDS011;21870;42.812;74.628;2023-07-31T11:03:10;2.50;;;1.20;;
35745;SDS011;21870;42.812;74.628;2023-07-31T11:08:12;2.13;;;1.38;;
35745;SDS011;21870;42.812;74.628;2023-07-31T11:10:38;4.43;;;1.10;;
35745;SDS011;21870;42.812;74.628;2023-07-31T11:13:04;2.72;;;1.50;;
35745;SDS011;21870;42.812;74.628;2023-07-31T11:15:31;1.42;;;1.15;;
35745;SDS011;21870;42.812;74.628;2023-07-31T11:17:57;3.88;;;1.25;;
35745;SDS011;21870;42.812;74.628;2023-07-31T11:20:26;1.83;;;1.30;;
35745;SDS011;21870;42.812;74.628;2023-07-31T11:22:54;1.90;;;1.27;;
35745;SDS011;21870;42.812;74.628;2023-07-31T11:25:20;6.28;;;1.30;;
35745;SDS011;21870;42.812;74.628;2023-07-31T11:27:48;2.17;;;1.08;;
35745;SDS011;21870;42.812;74.628;2023-07-31T11:30:19;3.28;;;1.25;;
35745;SDS011;21870;42.812;74.628;2023-07-31T11:32:45;2.92;;;1.40;;
35745;SDS011;21870;42.812;74.628;2023-07-31T11:35:14;5.78;;;1.40;;
35745;SDS011;21870;42.812;74.628;2023-07-31T11:37:43;3.53;;;1.40;;
35745;SDS011;21870;42.812;74.628;2023-07-31T11:40:10;1.35;;;1.20;;
35745;SDS011;21870;42.812;74.628;2023-07-31T11:42:37;3.90;;;1.60;;
35745;SDS011;21870;42.812;74.628;2023-07-31T11:45:06;5.57;;;1.70;;
35745;SDS011;21870;42.812;74.628;2023-07-31T11:47:34;2.75;;;1.20;;
35745;SDS011;21870;42.812;74.628;2023-07-31T11:50:02;3.03;;;1.55;;
35745;SDS011;21870;42.812;74.628;2023-07-31T11:52:29;2.92;;;1.08;;
35745;SDS011;21870;42.812;74.628;2023-07-31T11:55:03;2.03;;;1.17;;
35745;SDS011;21870;42.812;74.628;2023-07-31T11:57:32;2.63;;;1.40;;
35745;SDS011;21870;42.812;74.628;2023-07-31T11:59:58;4.03;;;1.15;;
35745;SDS011;21870;42.812;74.628;2023-07-31T12:02:24;2.47;;;1.20;;
35745;SDS011;21870;42.812;74.628;2023-07-31T12:04:51;6.88;;;1.77;;
35745;SDS011;21870;42.812;74.628;2023-07-31T12:07:17;2.47;;;1.08;;
35745;SDS011;21870;42.812;74.628;2023-07-31T12:09:52;3.45;;;1.42;;
35745;SDS011;21870;42.812;74.628;2023-07-31T12:12:25;5.25;;;1.40;;
35745;SDS011;21870;42.812;74.628;2023-07-31T12:14:51;7.22;;;1.70;;
35745;SDS011;21870;42.812;74.628;2023-07-31T12:17:18;9.05;;;2.38;;
35745;SDS011;21870;42.812;74.628;2023-07-31T12:19:48;5.47;;;2.28;;
35745;SDS011;21870;42.812;74.628;2023-07-31T12:22:14;10.32;;;1.70;;
35745;SDS011;21870;42.812;74.628;2023-07-31T12:24:44;5.82;;;1.77;;
35745;SDS011;21870;42.812;74.628;2023-07-31T12:27:11;6.68;;;2.20;;
35745;SDS011;21870;42.812;74.628;2023-07-31T12:29:38;3.95;;;1.25;;
35745;SDS011;21870;42.812;74.628;2023-07-31T12:32:21;3.63;;;1.25;;
35745;SDS011;21870;42.812;74.628;2023-07-31T12:34:49;5.00;;;1.45;;
35745;SDS011;21870;42.812;74.628;2023-07-31T12:37:15;2.80;;;1.63;;
35745;SDS011;21870;42.812;74.628;2023-07-31T12:39:41;6.70;;;2.00;;
35745;SDS011;21870;42.812;74.628;2023-07-31T12:42:07;9.20;;;1.88;;
35745;SDS011;21870;42.812;74.628;2023-07-31T12:44:33;4.63;;;1.70;;
35745;SDS011;21870;42.812;74.628;2023-07-31T12:46:59;4.88;;;1.30;;
35745;SDS011;21870;42.812;74.628;2023-07-31T12:49:25;5.65;;;1.48;;
35745;SDS011;21870;42.812;74.628;2023-07-31T12:51:51;4.03;;;1.45;;
35745;SDS011;21870;42.812;74.628;2023-07-31T12:54:19;8.13;;;1.92;;
35745;SDS011;21870;42.812;74.628;2023-07-31T12:56:45;5.57;;;1.73;;
35745;SDS011;21870;42.812;74.628;2023-07-31T12:59:11;5.75;;;1.83;;
35745;SDS011;21870;42.812;74.628;2023-07-31T13:01:37;4.47;;;1.58;;
35745;SDS011;21870;42.812;74.628;2023-07-31T13:04:03;8.88;;;1.80;;
35745;SDS011;21870;42.812;74.628;2023-07-31T13:06:29;7.07;;;1.50;;
35745;SDS011;21870;42.812;74.628;2023-07-31T13:08:55;6.25;;;1.35;;
35745;SDS011;21870;42.812;74.628;2023-07-31T13:11:24;7.75;;;1.63;;
35745;SDS011;21870;42.812;74.628;2023-07-31T13:13:50;2.53;;;1.42;;
35745;SDS011;21870;42.812;74.628;2023-07-31T13:16:16;6.68;;;2.33;;
35745;SDS011;21870;42.812;74.628;2023-07-31T13:18:42;5.38;;;2.55;;
35745;SDS011;21870;42.812;74.628;2023-07-31T13:21:08;4.60;;;2.63;;
35745;SDS011;21870;42.812;74.628;2023-07-31T13:23:34;7.85;;;5.22;;
35745;SDS011;21870;42.812;74.628;2023-07-31T13:26:00;14.43;;;8.20;;
35745;SDS011;21870;42.812;74.628;2023-07-31T13:28:26;6.55;;;3.90;;
35745;SDS011;21870;42.812;74.628;2023-07-31T13:30:52;5.70;;;1.77;;
35745;SDS011;21870;42.812;74.628;2023-07-31T13:33:18;5.38;;;2.05;;
35745;SDS011;21870;42.812;74.628;2023-07-31T13:35:44;8.63;;;2.15;;
35745;SDS011;21870;42.812;74.628;2023-07-31T13:38:10;8.10;;;2.42;;
35745;SDS011;21870;42.812;74.628;2023-07-31T13:40:36;3.10;;;1.92;;
35745;SDS011;21870;42.812;74.628;2023-07-31T13:43:02;8.80;;;2.50;;
35745;SDS011;21870;42.812;74.628;2023-07-31T13:45:28;12.13;;;2.72;;
35745;SDS011;21870;42.812;74.628;2023-07-31T13:47:54;8.32;;;2.83;;
35745;SDS011;21870;42.812;74.628;2023-07-31T13:50:20;12.00;;;4.10;;
35745;SDS011;21870;42.812;74.628;2023-07-31T13:52:47;9.48;;;2.72;;
35745;SDS011;21870;42.812;74.628;2023-07-31T13:55:13;5.70;;;2.85;;
35745;SDS011;21870;42.812;74.628;2023-07-31T13:57:39;5.68;;;2.20;;
35745;SDS011;21870;42.812;74.628;2023-07-31T14:00:06;8.90;;;2.08;;
35745;SDS011;21870;42.812;74.628;2023-07-31T14:02:33;6.03;;;2.47;;
35745;SDS011;21870;42.812;74.628;2023-07-31T14:04:59;7.53;;;2.83;;
35745;SDS011;21870;42.812;74.628;2023-07-31T14:07:25;11.32;;;2.50;;
35745;SDS011;21870;42.812;74.628;2023-07-31T14:09:51;5.97;;;2.63;;
35745;SDS011;21870;42.812;74.628;2023-07-31T14:12:17;8.27;;;2.83;;
35745;SDS011;21870;42.812;74.628;2023-07-31T14:14:43;7.82;;;2.92;;
35745;SDS011;21870;42.812;74.628;2023-07-31T14:17:09;10.35;;;3.75;;
35745;SDS011;21870;42.812;74.628;2023-07-31T14:19:35;14.07;;;4.35;;
35745;SDS011;21870;42.812;74.628;2023-07-31T14:22:01;13.23;;;4.10;;
35745;SDS011;21870;42.812;74.628;2023-07-31T14:24:27;17.00;;;4.65;;
35745;SDS011;21870;42.812;74.628;2023-07-31T14:26:53;15.85;;;6.78;;
35745;SDS011;21870;42.812;74.628;2023-07-31T14:29:19;14.55;;;7.43;;
35745;SDS011;21870;42.812;74.628;2023-07-31T14:31:44;13.02;;;5.72;;
35745;SDS011;21870;42.812;74.628;2023-07-31T14:34:11;11.55;;;4.75;;
35745;SDS011;21870;42.812;74.628;2023-07-31T14:36:37;12.45;;;3.70;;